Seven Seas Mariner — C6VV8 — position and weather

sailwx.info

Track history (hours):
 
Tides and Currents Weather Stations Pressure Air Temp Water Temp Dewpoint Dewpoint Depression Visibility Wind Speed Wind Dir Waves Ship Positions

Seven Seas Mariner

Last reported at 2019-Jul-19 08:56 UTC. Time now 2019-Jul-19 19:36 UTC.
Position N 58°18' W 136°15'.

Length 216 m; draft 7.2 m.

Type: Passenger vessel. MMSI: 311622000.

Date/timePositionNaut miles runAvg speedWind from/ knotsBaromVisibWave heightAir tempDewpointWater temp
2019-Jul-19 08:56N 58°18' W 136°15'716.7
2019-Jul-19 08:30N 58°20' W 136°02'816.8
2019-Jul-19 08:00N 58°18' W 135°47'918.3
2019-Jul-19 07:30N 58°15' W 135°30'918.2
2019-Jul-19 07:00N 58°12' W 135°14'5 0.2
2019-Jul-18 06:52N 58°10' W 135°23'3 0.2
2019-Jul-17 15:02N 58°08' W 135°28'1 1.4
2019-Jul-17 14:36N 58°09' W 135°27'1 7.6
2019-Jul-17 14:30N 58°09' W 135°26'4 8.1
2019-Jul-17 14:00N 58°13' W 135°26'510.2
2019-Jul-17 13:30N 58°15' W 135°35'510.9
2019-Jul-17 13:00N 58°18' W 135°45'510.9
2019-Jul-17 12:30N 58°19' W 135°55'510.9
2019-Jul-17 12:00N 58°20' W 136°05'910.6
2019-Jul-17 11:08N 58°17' W 136°22'254 5.5
2019-Jul-15 12:44N 55°09' W 131°11'1512.6
2019-Jul-15 11:34N 54°54' W 131°04'111.3
2019-Jul-15 11:27N 54°53' W 131°04'714.5
2019-Jul-15 11:00N 54°46' W 131°05'714.0
2019-Jul-15 10:30N 54°41' W 131°12'713.8
2019-Jul-15 10:01N 54°35' W 131°16'714.8
2019-Jul-15 09:30N 54°28' W 131°11'815.5
2019-Jul-15 09:00N 54°21' W 131°05'714.5
2019-Jul-15 08:30N 54°14' W 131°02'715.0
2019-Jul-15 08:01N 54°06' W 131°02'714.7
2019-Jul-15 07:30N 53°59' W 131°01'714.6
2019-Jul-15 07:00N 53°52' W 130°58'714.5
2019-Jul-15 06:30N 53°45' W 130°55'714.4
2019-Jul-15 06:00N 53°38' W 130°53'816.6
2019-Jul-15 05:30N 53°30' W 130°50'918.6
2019-Jul-15 05:00N 53°20' W 130°46'6916.9
2019-Jul-15 00:54N 52°15' W 130°09'915.7
2019-Jul-15 00:21N 52°07' W 130°04'815.5
2019-Jul-14 23:50N 51°59' W 129°59'616.2
2019-Jul-14 23:29N 51°54' W 129°55'815.6
2019-Jul-14 23:00N 51°47' W 129°49'714.7
2019-Jul-14 22:30N 51°41' W 129°42'814.7
2019-Jul-14 21:59N 51°35' W 129°36'714.6
2019-Jul-14 21:30N 51°29' W 129°30'714.0
2019-Jul-14 21:00N 51°25' W 129°21'815.3
2019-Jul-14 20:30N 51°22' W 129°10'815.3
2019-Jul-14 20:00N 51°19' W 128°59'715.0
2019-Jul-14 19:30N 51°15' W 128°48'714.9
2019-Jul-14 19:00N 51°13' W 128°37'714.2
2019-Jul-14 18:30N 51°10' W 128°26'713.6
2019-Jul-14 18:00N 51°07' W 128°16'713.7
2019-Jul-14 17:30N 51°04' W 128°06'713.5
2019-Jul-14 17:00N 51°02' W 127°57'713.2
2019-Jul-14 16:30N 50°59' W 127°47'612.1
2019-Jul-14 16:00N 50°55' W 127°40'714.3
2019-Jul-14 15:30N 50°51' W 127°31'2314.9
2019-Jul-14 13:56N 50°42' W 126°57'5017.7
2019-Jul-14 11:06N 50°22' W 125°44'1117.9
2019-Jul-14 10:28N 50°20' W 125°26'817.1
2019-Jul-14 10:01N 50°13' W 125°23'612.4
2019-Jul-14 09:30N 50°07' W 125°19'612.9
2019-Jul-14 09:00N 50°02' W 125°13'612.8
2019-Jul-14 08:30N 49°56' W 125°08'815.4
2019-Jul-14 08:00N 49°51' W 124°60'714.3
2019-Jul-14 07:30N 49°47' W 124°51'714.0
2019-Jul-14 07:00N 49°41' W 124°43'713.8
2019-Jul-14 06:30N 49°36' W 124°37'713.4
2019-Jul-14 06:00N 49°31' W 124°31'712.9
2019-Jul-14 05:28N 49°26' W 124°22'713.5
2019-Jul-14 04:58N 49°24' W 124°12'613.4
2019-Jul-14 04:30N 49°22' W 124°03'713.4
2019-Jul-14 04:00N 49°21' W 123°53'813.6
2019-Jul-14 03:25N 49°19' W 123°41'613.7
2019-Jul-14 03:00N 49°19' W 123°32'713.7
2019-Jul-14 02:30N 49°19' W 123°22'713.5
2019-Jul-14 02:00N 49°19' W 123°12'4 8.4
2019-Jul-14 01:30N 49°18' W 123°06'0 1.0
2019-Jul-14 01:00N 49°17' W 123°07'0 0.0
2019-Jul-14 00:30N 49°17' W 123°07'0 0.0
2019-Jul-14 00:00N 49°17' W 123°07'0 0.0
2019-Jul-13 23:30N 49°17' W 123°07'0 0.0
2019-Jul-13 23:00N 49°17' W 123°07'0 0.0
2019-Jul-13 22:30N 49°17' W 123°07'0 0.0
2019-Jul-13 22:00N 49°17' W 123°07'0 0.0
2019-Jul-13 21:24N 49°17' W 123°07'0 0.0
2019-Jul-13 21:00N 49°17' W 123°07'0 0.0
2019-Jul-13 20:30N 49°17' W 123°07'0 0.0
2019-Jul-13 20:00N 49°17' W 123°07'0 0.0
2019-Jul-13 19:30N 49°17' W 123°07'0 0.0
2019-Jul-13 19:00N 49°17' W 123°07'0 0.0
2019-Jul-13 18:30N 49°17' W 123°07'0 0.0
2019-Jul-13 18:00N 49°17' W 123°07'0 0.0
2019-Jul-13 17:30N 49°17' W 123°07'0 0.0
2019-Jul-13 17:00N 49°17' W 123°07'0 0.0
2019-Jul-13 16:30N 49°17' W 123°07'0 0.0
2019-Jul-13 16:00N 49°17' W 123°07'0 0.0
2019-Jul-13 15:30N 49°17' W 123°07'0 0.0
2019-Jul-13 15:00N 49°17' W 123°07'0 0.0
2019-Jul-13 14:30N 49°17' W 123°07'0 0.0
2019-Jul-13 14:00N 49°17' W 123°07'0 0.0
2019-Jul-13 13:30N 49°17' W 123°07'0 0.3
2019-Jul-13 13:00N 49°17' W 123°06'2 4.1
2019-Jul-13 12:30N 49°19' W 123°09'4 8.2
2019-Jul-13 12:00N 49°19' W 123°15'3 7.0
2019-Jul-13 11:30N 49°16' W 123°19'4 8.0
2019-Jul-13 11:00N 49°12' W 123°20'4 7.9
2019-Jul-13 10:30N 49°08' W 123°20'4 7.8
2019-Jul-13 10:00N 49°04' W 123°21'4 7.8
2019-Jul-13 09:30N 49°01' W 123°17'4 7.9
2019-Jul-13 09:00N 48°59' W 123°13'4 7.8
2019-Jul-13 08:30N 48°56' W 123°08'4 7.9
2019-Jul-13 08:00N 48°54' W 123°03'4 7.6
2019-Jul-13 07:30N 48°51' W 122°60'3 6.7
2019-Jul-13 07:00N 48°48' W 122°60'4 7.0
2019-Jul-13 06:30N 48°45' W 123°04'3 6.7
2019-Jul-13 06:00N 48°43' W 123°08'3 6.8
2019-Jul-13 05:30N 48°42' W 123°13'3 5.9
2019-Jul-13 05:00N 48°39' W 123°14'4 7.1
2019-Jul-13 04:30N 48°36' W 123°13'3 6.6
2019-Jul-13 04:00N 48°33' W 123°12'3 6.4
2019-Jul-13 03:30N 48°30' W 123°10'4 7.5
2019-Jul-13 03:00N 48°26' W 123°10'3 5.9
2019-Jul-13 02:30N 48°24' W 123°13'3 5.7
2019-Jul-13 02:00N 48°23' W 123°17'3 5.2
2019-Jul-13 01:30N 48°22' W 123°21'3 6.3
2019-Jul-13 01:00N 48°24' W 123°24'1 1.3
2019-Jul-13 00:28N 48°25' W 123°23'0 0.0
2019-Jul-12 23:58N 48°25' W 123°23'0 0.0
2019-Jul-12 23:28N 48°25' W 123°23'0 0.0
2019-Jul-12 22:58N 48°25' W 123°23'0 0.0
2019-Jul-12 22:28N 48°25' W 123°23'0 0.0
2019-Jul-12 21:58N 48°25' W 123°23'0 0.0
2019-Jul-12 21:28N 48°25' W 123°23'0 0.0
2019-Jul-12 20:58N 48°25' W 123°23'0 0.0
2019-Jul-12 20:28N 48°25' W 123°23'0 0.0
2019-Jul-12 19:58N 48°25' W 123°23'0 0.0
2019-Jul-12 19:28N 48°25' W 123°23'0 0.0
2019-Jul-12 18:58N 48°25' W 123°23'0 0.0
2019-Jul-12 18:28N 48°25' W 123°23'0 0.0
2019-Jul-12 17:58N 48°25' W 123°23'0 0.0
2019-Jul-12 17:28N 48°25' W 123°23'0 0.0
2019-Jul-12 16:58N 48°25' W 123°23'0 0.0
2019-Jul-12 16:28N 48°25' W 123°23'0 0.0
2019-Jul-12 15:58N 48°25' W 123°23'0 0.0
2019-Jul-12 15:28N 48°25' W 123°23'0 0.0
2019-Jul-12 14:58N 48°25' W 123°23'0 0.0
2019-Jul-12 14:28N 48°25' W 123°23'0 0.0
2019-Jul-12 14:00N 48°25' W 123°23'1 2.7
2019-Jul-12 13:30N 48°24' W 123°24'611.2
2019-Jul-12 13:00N 48°24' W 123°15'611.3
2019-Jul-12 12:30N 48°29' W 123°13'613.0
2019-Jul-12 12:00N 48°35' W 123°14'612.9
2019-Jul-12 11:30N 48°42' W 123°15'713.1
2019-Jul-12 11:00N 48°45' W 123°06'510.7
2019-Jul-12 10:31N 48°50' W 123°02'815.2
2019-Jul-12 10:01N 48°55' W 123°11'816.2
2019-Jul-12 09:30N 49°00' W 123°20'815.5
2019-Jul-12 09:01N 49°06' W 123°28'815.1
2019-Jul-12 08:30N 49°11' W 123°37'815.4
2019-Jul-12 08:00N 49°15' W 123°46'815.2
2019-Jul-12 07:30N 49°19' W 123°57'815.4
2019-Jul-12 07:00N 49°23' W 124°07'714.5
2019-Jul-12 06:30N 49°25' W 124°18'714.6
2019-Jul-12 06:00N 49°28' W 124°28'815.2
2019-Jul-12 05:30N 49°34' W 124°36'815.8
2019-Jul-12 05:01N 49°40' W 124°44'918.7
2019-Jul-12 04:30N 49°47' W 124°53'918.7
2019-Jul-12 04:01N 49°53' W 125°04'917.8
2019-Jul-12 03:31N 50°00' W 125°12'714.9
2019-Jul-12 03:01N 50°07' W 125°19'510.5
2019-Jul-12 02:30N 50°11' W 125°22'19 9.5
2019-Jul-12 00:31N 50°22' W 125°46'7213.8
2019-Jul-11 19:19N 50°51' W 127°30'414.4
2019-Jul-11 19:01N 50°53' W 127°36'714.8
2019-Jul-11 18:30N 50°58' W 127°46'815.2
2019-Jul-11 18:00N 51°01' W 127°56'815.1
2019-Jul-11 17:31N 51°04' W 128°07'815.1
2019-Jul-11 17:01N 51°07' W 128°18'815.1
2019-Jul-11 16:31N 51°10' W 128°29'815.6
2019-Jul-11 16:00N 51°14' W 128°41'815.0
2019-Jul-11 15:30N 51°17' W 128°51'714.6
2019-Jul-11 15:00N 51°20' W 129°02'714.8
2019-Jul-11 14:30N 51°23' W 129°12'714.6
2019-Jul-11 14:00N 51°27' W 129°23'714.3
2019-Jul-11 13:30N 51°32' W 129°31'714.4
2019-Jul-11 13:00N 51°37' W 129°38'713.8
2019-Jul-11 12:30N 51°43' W 129°45'713.8
2019-Jul-11 11:58N 51°49' W 129°51'9218.0
2019-Jul-11 06:51N 53°15' W 130°45'818.2
2019-Jul-11 06:23N 53°24' W 130°48'717.7
2019-Jul-11 05:59N 53°31' W 130°50'918.2
2019-Jul-11 05:30N 53°39' W 130°54'917.7
2019-Jul-11 05:00N 53°47' W 130°57'917.9
2019-Jul-11 04:30N 53°56' W 130°60'816.3
2019-Jul-11 04:00N 54°04' W 131°01'815.0
2019-Jul-11 03:30N 54°12' W 131°01'816.2
2019-Jul-11 03:01N 54°19' W 130°54'918.1
2019-Jul-11 02:30N 54°15' W 130°40'918.0
2019-Jul-11 02:00N 54°12' W 130°26'5 9.4
2019-Jul-11 01:30N 54°16' W 130°21'4 7.1
2019-Jul-11 01:00N 54°19' W 130°20'0 0.1
2019-Jul-11 00:27N 54°19' W 130°19'0 0.0
2019-Jul-11 00:00N 54°19' W 130°19'0 0.0
2019-Jul-10 23:30N 54°19' W 130°19'0 0.0
2019-Jul-10 23:01N 54°19' W 130°19'0 0.0
2019-Jul-10 22:30N 54°19' W 130°19'0 0.0
2019-Jul-10 22:00N 54°19' W 130°19'0 0.0
2019-Jul-10 21:30N 54°19' W 130°19'0 0.0
2019-Jul-10 21:00N 54°19' W 130°19'0 0.0
2019-Jul-10 20:21N 54°19' W 130°19'0 0.0
2019-Jul-10 19:57N 54°19' W 130°19'0 0.0
2019-Jul-10 19:30N 54°19' W 130°19'0 0.0
2019-Jul-10 19:00N 54°19' W 130°19'0 0.0
2019-Jul-10 18:30N 54°19' W 130°19'0 0.0
2019-Jul-10 18:00N 54°19' W 130°19'0 0.0
2019-Jul-10 17:31N 54°19' W 130°19'0 0.0
2019-Jul-10 17:00N 54°19' W 130°19'0 0.0
2019-Jul-10 16:30N 54°19' W 130°19'0 0.0
2019-Jul-10 16:00N 54°19' W 130°19'0 0.0
2019-Jul-10 15:30N 54°19' W 130°19'0 0.0
2019-Jul-10 15:01N 54°19' W 130°19'0 0.0
2019-Jul-10 14:30N 54°19' W 130°19'0 0.0
2019-Jul-10 14:01N 54°19' W 130°19'0 0.0
2019-Jul-10 13:30N 54°19' W 130°19'1 2.0
2019-Jul-10 13:00N 54°19' W 130°21'4 7.9
2019-Jul-10 12:30N 54°15' W 130°21'4 8.9
2019-Jul-10 12:01N 54°12' W 130°26'815.0
2019-Jul-10 11:30N 54°14' W 130°39'714.8
2019-Jul-10 11:01N 54°17' W 130°50'510.3
2019-Jul-10 10:31N 54°19' W 130°58'510.8
2019-Jul-10 10:00N 54°23' W 131°06'612.0
2019-Jul-10 09:29N 54°28' W 131°10'611.6
2019-Jul-10 09:00N 54°33' W 131°15'510.9
2019-Jul-10 08:30N 54°39' W 131°14'611.8
2019-Jul-10 07:58N 54°44' W 131°09'611.9
2019-Jul-10 07:29N 54°49' W 131°05'612.3
2019-Jul-10 06:59N 54°55' W 131°05'612.6
2019-Jul-10 06:30N 55°01' W 131°07'612.5
2019-Jul-10 06:00N 55°07' W 131°10'1311.6
2019-Jul-10 04:51N 55°15' W 131°28'  
Track history (hours):
 
Tides and Currents Weather Stations Pressure Air Temp Water Temp Dewpoint Dewpoint Depression Visibility Wind Speed Wind Dir Waves Ship Positions

Seven Seas Mariner

Last reported at 2019-Jul-19 08:56 UTC. Time now 2019-Jul-19 19:36 UTC.
Position N 58°18' W 136°15'.

Length 216 m; draft 7.2 m.

Type: Passenger vessel. MMSI: 311622000.

Date/timePositionNaut miles runAvg speedWind from/ knotsBaromVisibWave heightAir tempDewpointWater temp
2019-Jul-19 08:56N 58°18' W 136°15'716.7
2019-Jul-19 08:30N 58°20' W 136°02'816.8
2019-Jul-19 08:00N 58°18' W 135°47'918.3
2019-Jul-19 07:30N 58°15' W 135°30'918.2
2019-Jul-19 07:00N 58°12' W 135°14'5 0.2
2019-Jul-18 06:52N 58°10' W 135°23'3 0.2
2019-Jul-17 15:02N 58°08' W 135°28'1 1.4
2019-Jul-17 14:36N 58°09' W 135°27'1 7.6
2019-Jul-17 14:30N 58°09' W 135°26'4 8.1
2019-Jul-17 14:00N 58°13' W 135°26'510.2
2019-Jul-17 13:30N 58°15' W 135°35'510.9
2019-Jul-17 13:00N 58°18' W 135°45'510.9
2019-Jul-17 12:30N 58°19' W 135°55'510.9
2019-Jul-17 12:00N 58°20' W 136°05'910.6
2019-Jul-17 11:08N 58°17' W 136°22'254 5.5
2019-Jul-15 12:44N 55°09' W 131°11'1512.6
2019-Jul-15 11:34N 54°54' W 131°04'111.3
2019-Jul-15 11:27N 54°53' W 131°04'714.5
2019-Jul-15 11:00N 54°46' W 131°05'714.0
2019-Jul-15 10:30N 54°41' W 131°12'713.8
2019-Jul-15 10:01N 54°35' W 131°16'714.8
2019-Jul-15 09:30N 54°28' W 131°11'815.5
2019-Jul-15 09:00N 54°21' W 131°05'714.5
2019-Jul-15 08:30N 54°14' W 131°02'715.0
2019-Jul-15 08:01N 54°06' W 131°02'714.7
2019-Jul-15 07:30N 53°59' W 131°01'714.6
2019-Jul-15 07:00N 53°52' W 130°58'714.5
2019-Jul-15 06:30N 53°45' W 130°55'714.4
2019-Jul-15 06:00N 53°38' W 130°53'816.6
2019-Jul-15 05:30N 53°30' W 130°50'918.6
2019-Jul-15 05:00N 53°20' W 130°46'6916.9
2019-Jul-15 00:54N 52°15' W 130°09'915.7
2019-Jul-15 00:21N 52°07' W 130°04'815.5
2019-Jul-14 23:50N 51°59' W 129°59'616.2
2019-Jul-14 23:29N 51°54' W 129°55'815.6
2019-Jul-14 23:00N 51°47' W 129°49'714.7
2019-Jul-14 22:30N 51°41' W 129°42'814.7
2019-Jul-14 21:59N 51°35' W 129°36'714.6
2019-Jul-14 21:30N 51°29' W 129°30'714.0
2019-Jul-14 21:00N 51°25' W 129°21'815.3
2019-Jul-14 20:30N 51°22' W 129°10'815.3
2019-Jul-14 20:00N 51°19' W 128°59'715.0
2019-Jul-14 19:30N 51°15' W 128°48'714.9
2019-Jul-14 19:00N 51°13' W 128°37'714.2
2019-Jul-14 18:30N 51°10' W 128°26'713.6
2019-Jul-14 18:00N 51°07' W 128°16'713.7
2019-Jul-14 17:30N 51°04' W 128°06'713.5
2019-Jul-14 17:00N 51°02' W 127°57'713.2
2019-Jul-14 16:30N 50°59' W 127°47'612.1
2019-Jul-14 16:00N 50°55' W 127°40'714.3
2019-Jul-14 15:30N 50°51' W 127°31'2314.9
2019-Jul-14 13:56N 50°42' W 126°57'5017.7
2019-Jul-14 11:06N 50°22' W 125°44'1117.9
2019-Jul-14 10:28N 50°20' W 125°26'817.1
2019-Jul-14 10:01N 50°13' W 125°23'612.4
2019-Jul-14 09:30N 50°07' W 125°19'612.9
2019-Jul-14 09:00N 50°02' W 125°13'612.8
2019-Jul-14 08:30N 49°56' W 125°08'815.4
2019-Jul-14 08:00N 49°51' W 124°60'714.3
2019-Jul-14 07:30N 49°47' W 124°51'714.0
2019-Jul-14 07:00N 49°41' W 124°43'713.8
2019-Jul-14 06:30N 49°36' W 124°37'713.4
2019-Jul-14 06:00N 49°31' W 124°31'712.9
2019-Jul-14 05:28N 49°26' W 124°22'713.5
2019-Jul-14 04:58N 49°24' W 124°12'613.4
2019-Jul-14 04:30N 49°22' W 124°03'713.4
2019-Jul-14 04:00N 49°21' W 123°53'813.6
2019-Jul-14 03:25N 49°19' W 123°41'613.7
2019-Jul-14 03:00N 49°19' W 123°32'713.7
2019-Jul-14 02:30N 49°19' W 123°22'713.5
2019-Jul-14 02:00N 49°19' W 123°12'4 8.4
2019-Jul-14 01:30N 49°18' W 123°06'0 1.0
2019-Jul-14 01:00N 49°17' W 123°07'0 0.0
2019-Jul-14 00:30N 49°17' W 123°07'0 0.0
2019-Jul-14 00:00N 49°17' W 123°07'0 0.0
2019-Jul-13 23:30N 49°17' W 123°07'0 0.0
2019-Jul-13 23:00N 49°17' W 123°07'0 0.0
2019-Jul-13 22:30N 49°17' W 123°07'0 0.0
2019-Jul-13 22:00N 49°17' W 123°07'0 0.0
2019-Jul-13 21:24N 49°17' W 123°07'0 0.0
2019-Jul-13 21:00N 49°17' W 123°07'0 0.0
2019-Jul-13 20:30N 49°17' W 123°07'0 0.0
2019-Jul-13 20:00N 49°17' W 123°07'0 0.0
2019-Jul-13 19:30N 49°17' W 123°07'0 0.0
2019-Jul-13 19:00N 49°17' W 123°07'0 0.0
2019-Jul-13 18:30N 49°17' W 123°07'0 0.0
2019-Jul-13 18:00N 49°17' W 123°07'0 0.0
2019-Jul-13 17:30N 49°17' W 123°07'0 0.0
2019-Jul-13 17:00N 49°17' W 123°07'0 0.0
2019-Jul-13 16:30N 49°17' W 123°07'0 0.0
2019-Jul-13 16:00N 49°17' W 123°07'0 0.0
2019-Jul-13 15:30N 49°17' W 123°07'0 0.0
2019-Jul-13 15:00N 49°17' W 123°07'0 0.0
2019-Jul-13 14:30N 49°17' W 123°07'0 0.0
2019-Jul-13 14:00N 49°17' W 123°07'0 0.0
2019-Jul-13 13:30N 49°17' W 123°07'0 0.3
2019-Jul-13 13:00N 49°17' W 123°06'2 4.1
2019-Jul-13 12:30N 49°19' W 123°09'4 8.2
2019-Jul-13 12:00N 49°19' W 123°15'3 7.0
2019-Jul-13 11:30N 49°16' W 123°19'4 8.0
2019-Jul-13 11:00N 49°12' W 123°20'4 7.9
2019-Jul-13 10:30N 49°08' W 123°20'4 7.8
2019-Jul-13 10:00N 49°04' W 123°21'4 7.8
2019-Jul-13 09:30N 49°01' W 123°17'4 7.9
2019-Jul-13 09:00N 48°59' W 123°13'4 7.8
2019-Jul-13 08:30N 48°56' W 123°08'4 7.9
2019-Jul-13 08:00N 48°54' W 123°03'4 7.6
2019-Jul-13 07:30N 48°51' W 122°60'3 6.7
2019-Jul-13 07:00N 48°48' W 122°60'4 7.0
2019-Jul-13 06:30N 48°45' W 123°04'3 6.7
2019-Jul-13 06:00N 48°43' W 123°08'3 6.8
2019-Jul-13 05:30N 48°42' W 123°13'3 5.9
2019-Jul-13 05:00N 48°39' W 123°14'4 7.1
2019-Jul-13 04:30N 48°36' W 123°13'3 6.6
2019-Jul-13 04:00N 48°33' W 123°12'3 6.4
2019-Jul-13 03:30N 48°30' W 123°10'4 7.5
2019-Jul-13 03:00N 48°26' W 123°10'3 5.9
2019-Jul-13 02:30N 48°24' W 123°13'3 5.7
2019-Jul-13 02:00N 48°23' W 123°17'3 5.2
2019-Jul-13 01:30N 48°22' W 123°21'3 6.3
2019-Jul-13 01:00N 48°24' W 123°24'1 1.3
2019-Jul-13 00:28N 48°25' W 123°23'0 0.0
2019-Jul-12 23:58N 48°25' W 123°23'0 0.0
2019-Jul-12 23:28N 48°25' W 123°23'0 0.0
2019-Jul-12 22:58N 48°25' W 123°23'0 0.0
2019-Jul-12 22:28N 48°25' W 123°23'0 0.0
2019-Jul-12 21:58N 48°25' W 123°23'0 0.0
2019-Jul-12 21:28N 48°25' W 123°23'0 0.0
2019-Jul-12 20:58N 48°25' W 123°23'0 0.0
2019-Jul-12 20:28N 48°25' W 123°23'0 0.0
2019-Jul-12 19:58N 48°25' W 123°23'0 0.0
2019-Jul-12 19:28N 48°25' W 123°23'0 0.0
2019-Jul-12 18:58N 48°25' W 123°23'0 0.0
2019-Jul-12 18:28N 48°25' W 123°23'0 0.0
2019-Jul-12 17:58N 48°25' W 123°23'0 0.0
2019-Jul-12 17:28N 48°25' W 123°23'0 0.0
2019-Jul-12 16:58N 48°25' W 123°23'0 0.0
2019-Jul-12 16:28N 48°25' W 123°23'0 0.0
2019-Jul-12 15:58N 48°25' W 123°23'0 0.0
2019-Jul-12 15:28N 48°25' W 123°23'0 0.0
2019-Jul-12 14:58N 48°25' W 123°23'0 0.0
2019-Jul-12 14:28N 48°25' W 123°23'0 0.0
2019-Jul-12 14:00N 48°25' W 123°23'1 2.7
2019-Jul-12 13:30N 48°24' W 123°24'611.2
2019-Jul-12 13:00N 48°24' W 123°15'611.3
2019-Jul-12 12:30N 48°29' W 123°13'613.0
2019-Jul-12 12:00N 48°35' W 123°14'612.9
2019-Jul-12 11:30N 48°42' W 123°15'713.1
2019-Jul-12 11:00N 48°45' W 123°06'510.7
2019-Jul-12 10:31N 48°50' W 123°02'815.2
2019-Jul-12 10:01N 48°55' W 123°11'816.2
2019-Jul-12 09:30N 49°00' W 123°20'815.5
2019-Jul-12 09:01N 49°06' W 123°28'815.1
2019-Jul-12 08:30N 49°11' W 123°37'815.4
2019-Jul-12 08:00N 49°15' W 123°46'815.2
2019-Jul-12 07:30N 49°19' W 123°57'815.4
2019-Jul-12 07:00N 49°23' W 124°07'714.5
2019-Jul-12 06:30N 49°25' W 124°18'714.6
2019-Jul-12 06:00N 49°28' W 124°28'815.2
2019-Jul-12 05:30N 49°34' W 124°36'815.8
2019-Jul-12 05:01N 49°40' W 124°44'918.7
2019-Jul-12 04:30N 49°47' W 124°53'918.7
2019-Jul-12 04:01N 49°53' W 125°04'917.8
2019-Jul-12 03:31N 50°00' W 125°12'714.9
2019-Jul-12 03:01N 50°07' W 125°19'510.5
2019-Jul-12 02:30N 50°11' W 125°22'19 9.5
2019-Jul-12 00:31N 50°22' W 125°46'7213.8
2019-Jul-11 19:19N 50°51' W 127°30'414.4
2019-Jul-11 19:01N 50°53' W 127°36'714.8
2019-Jul-11 18:30N 50°58' W 127°46'815.2
2019-Jul-11 18:00N 51°01' W 127°56'815.1
2019-Jul-11 17:31N 51°04' W 128°07'815.1
2019-Jul-11 17:01N 51°07' W 128°18'815.1
2019-Jul-11 16:31N 51°10' W 128°29'815.6
2019-Jul-11 16:00N 51°14' W 128°41'815.0
2019-Jul-11 15:30N 51°17' W 128°51'714.6
2019-Jul-11 15:00N 51°20' W 129°02'714.8
2019-Jul-11 14:30N 51°23' W 129°12'714.6
2019-Jul-11 14:00N 51°27' W 129°23'714.3
2019-Jul-11 13:30N 51°32' W 129°31'714.4
2019-Jul-11 13:00N 51°37' W 129°38'713.8
2019-Jul-11 12:30N 51°43' W 129°45'713.8
2019-Jul-11 11:58N 51°49' W 129°51'9218.0
2019-Jul-11 06:51N 53°15' W 130°45'818.2
2019-Jul-11 06:23N 53°24' W 130°48'717.7
2019-Jul-11 05:59N 53°31' W 130°50'918.2
2019-Jul-11 05:30N 53°39' W 130°54'917.7
2019-Jul-11 05:00N 53°47' W 130°57'917.9
2019-Jul-11 04:30N 53°56' W 130°60'816.3
2019-Jul-11 04:00N 54°04' W 131°01'815.0
2019-Jul-11 03:30N 54°12' W 131°01'816.2
2019-Jul-11 03:01N 54°19' W 130°54'918.1
2019-Jul-11 02:30N 54°15' W 130°40'918.0
2019-Jul-11 02:00N 54°12' W 130°26'5 9.4
2019-Jul-11 01:30N 54°16' W 130°21'4 7.1
2019-Jul-11 01:00N 54°19' W 130°20'0 0.1
2019-Jul-11 00:27N 54°19' W 130°19'0 0.0
2019-Jul-11 00:00N 54°19' W 130°19'0 0.0
2019-Jul-10 23:30N 54°19' W 130°19'0 0.0
2019-Jul-10 23:01N 54°19' W 130°19'0 0.0
2019-Jul-10 22:30N 54°19' W 130°19'0 0.0
2019-Jul-10 22:00N 54°19' W 130°19'0 0.0
2019-Jul-10 21:30N 54°19' W 130°19'0 0.0
2019-Jul-10 21:00N 54°19' W 130°19'0 0.0
2019-Jul-10 20:21N 54°19' W 130°19'0 0.0
2019-Jul-10 19:57N 54°19' W 130°19'0 0.0
2019-Jul-10 19:30N 54°19' W 130°19'0 0.0
2019-Jul-10 19:00N 54°19' W 130°19'0 0.0
2019-Jul-10 18:30N 54°19' W 130°19'0 0.0
2019-Jul-10 18:00N 54°19' W 130°19'0 0.0
2019-Jul-10 17:31N 54°19' W 130°19'0 0.0
2019-Jul-10 17:00N 54°19' W 130°19'0 0.0
2019-Jul-10 16:30N 54°19' W 130°19'0 0.0
2019-Jul-10 16:00N 54°19' W 130°19'0 0.0
2019-Jul-10 15:30N 54°19' W 130°19'0 0.0
2019-Jul-10 15:01N 54°19' W 130°19'0 0.0
2019-Jul-10 14:30N 54°19' W 130°19'0 0.0
2019-Jul-10 14:01N 54°19' W 130°19'0 0.0
2019-Jul-10 13:30N 54°19' W 130°19'1 2.0
2019-Jul-10 13:00N 54°19' W 130°21'4 7.9
2019-Jul-10 12:30N 54°15' W 130°21'4 8.9
2019-Jul-10 12:01N 54°12' W 130°26'815.0
2019-Jul-10 11:30N 54°14' W 130°39'714.8
2019-Jul-10 11:01N 54°17' W 130°50'510.3
2019-Jul-10 10:31N 54°19' W 130°58'510.8
2019-Jul-10 10:00N 54°23' W 131°06'612.0
2019-Jul-10 09:29N 54°28' W 131°10'611.6
2019-Jul-10 09:00N 54°33' W 131°15'510.9
2019-Jul-10 08:30N 54°39' W 131°14'611.8
2019-Jul-10 07:58N 54°44' W 131°09'611.9
2019-Jul-10 07:29N 54°49' W 131°05'612.3
2019-Jul-10 06:59N 54°55' W 131°05'612.6
2019-Jul-10 06:30N 55°01' W 131°07'612.5
2019-Jul-10 06:00N 55°07' W 131°10'1311.6
2019-Jul-10 04:51N 55°15' W 131°28'  

Dump ship's entire track history